Time;durP1;ratioP1;P1;durP2;ratioP2;P2;SDS_P1;SDS_P2;PMS_P1;PMS_P2;Temp;Humidity;BMP_temperature;BMP_pressure;BME280_temperature;BME280_humidity;BME280_pressure;Samples;Min_cycle;Max_cycle;Signal;HPM_P1;HPM_P2
2023/12/27 00:02:02;;;;;;;11.52;2.53;;;2.70;99.90;;;;;;5033618;28;20033;-67
2023/12/27 00:04:29;;;;;;;8.00;2.00;;;2.70;99.90;;;;;;5013445;28;20448;-67
2023/12/27 00:06:55;;;;;;;9.60;1.98;;;2.60;99.90;;;;;;5033821;28;20049;-67
2023/12/27 00:09:21;;;;;;;11.75;2.13;;;2.60;99.90;;;;;;5035073;28;20064;-68
2023/12/27 00:11:47;;;;;;;10.10;1.85;;;2.60;99.90;;;;;;5038592;28;20029;-68
2023/12/27 00:14:12;;;;;;;9.98;1.88;;;2.60;99.90;;;;;;5018430;28;20041;-68
2023/12/27 00:16:38;;;;;;;4.35;1.50;;;2.50;99.90;;;;;;5034709;28;20049;-68
2023/12/27 00:19:04;;;;;;;11.38;1.92;;;2.60;99.90;;;;;;5040581;28;20044;-67
2023/12/27 00:21:29;;;;;;;14.18;2.20;;;2.60;99.90;;;;;;5029676;28;20049;-67
2023/12/27 00:23:55;;;;;;;8.55;1.40;;;2.60;99.90;;;;;;5021654;28;20049;-68
2023/12/27 00:26:21;;;;;;;8.27;1.75;;;2.60;99.90;;;;;;5021375;28;20094;-68
2023/12/27 00:28:46;;;;;;;8.73;1.70;;;2.60;99.90;;;;;;5031589;28;20431;-67
2023/12/27 00:31:12;;;;;;;8.90;2.00;;;2.60;99.90;;;;;;5034100;28;20053;-68
2023/12/27 00:33:38;;;;;;;9.02;1.77;;;2.60;99.90;;;;;;5029847;28;20051;-68
2023/12/27 00:36:04;;;;;;;10.63;2.17;;;2.50;99.90;;;;;;5027626;28;20082;-68
2023/12/27 00:38:30;;;;;;;5.07;1.33;;;2.50;99.90;;;;;;5026665;28;20083;-67
2023/12/27 00:40:55;;;;;;;7.43;1.60;;;2.50;99.90;;;;;;5038846;28;20472;-68
2023/12/27 00:43:21;;;;;;;14.15;2.22;;;2.50;99.90;;;;;;5028419;28;20029;-68
2023/12/27 00:45:47;;;;;;;13.93;1.98;;;2.50;99.90;;;;;;5034909;28;20487;-68
2023/12/27 00:48:12;;;;;;;11.45;2.35;;;2.50;99.90;;;;;;5035246;28;20122;-67
2023/12/27 00:50:38;;;;;;;7.32;1.65;;;2.50;99.90;;;;;;5033935;28;20033;-67
2023/12/27 00:53:04;;;;;;;7.85;2.25;;;2.50;99.90;;;;;;5020412;28;20064;-68
2023/12/27 00:55:29;;;;;;;10.13;2.20;;;2.40;99.90;;;;;;5028300;28;20039;-68
2023/12/27 00:57:55;;;;;;;15.52;1.95;;;2.40;99.90;;;;;;5036143;28;20065;-68
2023/12/27 01:00:20;;;;;;;6.47;1.70;;;2.30;99.90;;;;;;5032948;28;20069;-67
2023/12/27 01:02:46;;;;;;;8.25;1.65;;;2.20;99.90;;;;;;5035732;28;20390;-68
2023/12/27 01:05:12;;;;;;;5.50;1.60;;;2.10;99.90;;;;;;5006984;28;20144;-68
2023/12/27 01:07:37;;;;;;;6.45;1.60;;;2.10;99.90;;;;;;5036831;28;20586;-67
2023/12/27 01:10:04;;;;;;;7.47;1.50;;;2.00;99.90;;;;;;5036111;28;20481;-68
2023/12/27 01:12:29;;;;;;;14.88;1.75;;;1.90;99.90;;;;;;5023451;28;20064;-68
2023/12/27 01:14:55;;;;;;;7.30;1.85;;;1.90;99.90;;;;;;5034872;28;20029;-67
2023/12/27 01:17:21;;;;;;;9.32;2.05;;;1.80;99.90;;;;;;5043976;28;20424;-68
2023/12/27 01:19:46;;;;;;;6.95;1.60;;;1.80;99.90;;;;;;5038470;28;20505;-67
2023/12/27 01:22:12;;;;;;;6.38;1.80;;;1.70;99.90;;;;;;5033352;28;20454;-68
2023/12/27 01:24:38;;;;;;;7.68;1.70;;;1.60;99.90;;;;;;5034081;28;22045;-67
2023/12/27 01:27:04;;;;;;;9.93;1.80;;;1.60;99.90;;;;;;5031617;28;20107;-67
2023/12/27 01:29:30;;;;;;;7.10;1.80;;;1.50;99.90;;;;;;5030819;28;20495;-67
2023/12/27 01:31:55;;;;;;;6.43;1.60;;;1.40;99.90;;;;;;5029606;28;20049;-68
2023/12/27 01:34:21;;;;;;;5.68;1.80;;;1.40;99.90;;;;;;5031052;28;20489;-67
2023/12/27 01:36:46;;;;;;;9.38;1.98;;;1.30;99.90;;;;;;5030865;28;20052;-68
2023/12/27 01:39:12;;;;;;;11.80;2.25;;;1.40;99.90;;;;;;5033215;28;20039;-67
2023/12/27 01:41:38;;;;;;;6.88;1.60;;;1.40;99.90;;;;;;5035958;28;20068;-67
2023/12/27 01:44:03;;;;;;;9.18;1.83;;;1.40;99.90;;;;;;5016846;28;20044;-68
2023/12/27 01:46:30;;;;;;;6.47;1.80;;;1.30;99.90;;;;;;5036412;28;20116;-67
2023/12/27 01:48:57;;;;;;;7.47;2.00;;;1.30;99.90;;;;;;5039465;28;20041;-68
2023/12/27 01:51:22;;;;;;;7.15;1.50;;;1.30;99.90;;;;;;5039737;28;20124;-68
2023/12/27 01:53:49;;;;;;;9.30;2.03;;;1.30;99.90;;;;;;5028955;28;20122;-68
2023/12/27 01:56:15;;;;;;;9.38;1.98;;;1.50;1.00;;;;;;5030724;28;20473;-67
2023/12/27 01:58:41;;;;;;;12.70;2.47;;;1.60;99.90;;;;;;5034259;28;20041;-67
2023/12/27 02:01:06;;;;;;;14.48;2.80;;;1.50;99.90;;;;;;5038433;28;20030;-68
2023/12/27 02:03:32;;;;;;;7.40;2.40;;;1.60;99.90;;;;;;5014992;28;20052;-67
2023/12/27 02:05:59;;;;;;;7.32;1.75;;;1.60;99.90;;;;;;5037956;28;20139;-68
2023/12/27 02:08:26;;;;;;;6.35;2.20;;;1.60;99.90;;;;;;5016427;28;20151;-67
2023/12/27 02:10:52;;;;;;;12.88;3.00;;;1.60;99.90;;;;;;5019518;28;20041;-68
2023/12/27 02:13:19;;;;;;;11.98;2.13;;;1.60;99.90;;;;;;5032213;28;20038;-67
2023/12/27 02:15:46;;;;;;;9.88;2.50;;;1.70;99.90;;;;;;5011151;28;20045;-67
2023/12/27 02:18:13;;;;;;;10.07;2.95;;;1.60;99.90;;;;;;5032722;28;20079;-67
2023/12/27 02:20:40;;;;;;;8.18;2.20;;;1.50;99.90;;;;;;5018041;28;20048;-67
2023/12/27 02:23:10;;;;;;;7.72;2.00;;;1.50;99.90;;;;;;5031071;28;20040;-68
2023/12/27 02:25:35;;;;;;;10.40;2.45;;;1.40;99.90;;;;;;5029861;28;20100;-69
2023/12/27 02:28:02;;;;;;;8.82;2.78;;;1.50;99.90;;;;;;5025454;28;20631;-67
2023/12/27 02:30:27;;;;;;;9.38;2.22;;;1.50;99.90;;;;;;5032144;28;20069;-67
2023/12/27 02:32:53;;;;;;;9.15;2.13;;;1.50;99.90;;;;;;5031867;28;20401;-67
2023/12/27 02:35:19;;;;;;;15.45;2.97;;;1.30;99.90;;;;;;5032979;28;20050;-67
2023/12/27 02:37:44;;;;;;;12.43;2.63;;;1.30;99.90;;;;;;5016852;28;20042;-67
2023/12/27 02:40:10;;;;;;;10.50;3.78;;;1.30;99.90;;;;;;5018512;28;20040;-68
2023/12/27 02:42:38;;;;;;;8.45;3.28;;;1.20;99.90;;;;;;5025350;28;20037;-67
2023/12/27 02:45:06;;;;;;;6.60;2.22;;;1.10;99.90;;;;;;5019997;28;20508;-67
2023/12/27 02:47:36;;;;;;;9.57;2.30;;;1.00;99.90;;;;;;5016502;28;20535;-67
2023/12/27 02:50:01;;;;;;;8.70;2.10;;;1.00;99.90;;;;;;5018122;28;20152;-67
2023/12/27 02:52:29;;;;;;;8.48;2.13;;;0.90;99.90;;;;;;5027760;28;20049;-67
2023/12/27 02:54:55;;;;;;;3.97;1.80;;;0.90;99.90;;;;;;5030749;28;20098;-67
2023/12/27 02:57:21;;;;;;;10.27;1.83;;;0.90;99.90;;;;;;5037601;28;20037;-67
2023/12/27 02:59:47;;;;;;;4.82;1.60;;;0.90;99.90;;;;;;5037230;28;20369;-67
2023/12/27 03:02:12;;;;;;;7.80;1.90;;;0.80;99.90;;;;;;5035514;28;20055;-67
2023/12/27 03:04:38;;;;;;;4.30;2.05;;;0.90;1.00;;;;;;5027759;28;20069;-67
2023/12/27 03:07:03;;;;;;;9.40;2.85;;;1.00;1.00;;;;;;5031989;28;20490;-68
2023/12/27 03:09:30;;;;;;;6.85;2.50;;;1.00;99.90;;;;;;5023326;28;20127;-67
2023/12/27 03:11:56;;;;;;;7.47;3.03;;;1.10;99.90;;;;;;5039540;28;20042;-67
2023/12/27 03:14:22;;;;;;;11.50;3.40;;;1.20;1.00;;;;;;5016096;28;20041;-67
2023/12/27 03:16:47;;;;;;;8.63;3.38;;;1.20;1.00;;;;;;5021617;28;20029;-67
2023/12/27 03:19:13;;;;;;;12.10;3.35;;;1.20;1.00;;;;;;5023590;28;20535;-67
2023/12/27 03:21:38;;;;;;;7.70;3.05;;;1.10;1.00;;;;;;5030850;28;20139;-67
2023/12/27 03:24:04;;;;;;;13.13;4.45;;;1.10;1.00;;;;;;5029678;28;20501;-67
2023/12/27 03:26:31;;;;;;;10.38;3.03;;;1.00;1.00;;;;;;5012445;28;20684;-68
2023/12/27 03:28:57;;;;;;;7.93;2.90;;;1.00;1.00;;;;;;5038870;28;20036;-67
2023/12/27 03:31:28;;;;;;;7.28;2.88;;;0.90;1.00;;;;;;5037555;28;20179;-67
2023/12/27 03:33:57;;;;;;;9.82;3.38;;;0.90;1.00;;;;;;5016383;28;20050;-67
2023/12/27 03:36:26;;;;;;;6.27;2.60;;;1.00;1.00;;;;;;5030529;28;20029;-67
2023/12/27 03:38:53;;;;;;;6.10;3.22;;;1.00;1.00;;;;;;5016266;28;20296;-68
2023/12/27 03:41:19;;;;;;;7.70;2.70;;;1.00;1.00;;;;;;5038357;28;20029;-67
2023/12/27 03:43:44;;;;;;;10.50;3.72;;;0.90;1.00;;;;;;5021148;28;20067;-67
2023/12/27 03:46:11;;;;;;;14.55;2.70;;;0.90;1.00;;;;;;5034827;28;20099;-68
2023/12/27 03:48:36;;;;;;;10.32;4.35;;;0.90;1.00;;;;;;5037086;28;20132;-68
2023/12/27 03:51:05;;;;;;;7.18;2.85;;;0.80;1.00;;;;;;5020429;28;20251;-67
2023/12/27 03:53:31;;;;;;;8.70;3.25;;;0.70;1.00;;;;;;5014777;28;20232;-68
2023/12/27 03:55:57;;;;;;;9.15;3.67;;;0.70;1.00;;;;;;5016767;28;20117;-67
2023/12/27 03:58:23;;;;;;;7.75;3.33;;;0.70;1.00;;;;;;5031626;28;20037;-67
2023/12/27 04:00:48;;;;;;;8.02;3.40;;;0.70;1.00;;;;;;5034279;28;20083;-67
2023/12/27 04:03:14;;;;;;;9.52;4.22;;;0.70;1.00;;;;;;5034015;28;20068;-68
2023/12/27 04:05:39;;;;;;;9.55;3.88;;;0.70;1.00;;;;;;5032363;28;20048;-67
2023/12/27 04:08:05;;;;;;;10.00;3.28;;;0.60;1.00;;;;;;5019393;28;20477;-67
2023/12/27 04:10:31;;;;;;;12.63;3.63;;;0.60;1.00;;;;;;5031851;28;20041;-68
2023/12/27 04:12:58;;;;;;;9.65;3.58;;;0.50;1.00;;;;;;5031465;28;20086;-67
2023/12/27 04:15:24;;;;;;;10.63;3.58;;;0.60;1.00;;;;;;5035372;28;20094;-67
2023/12/27 04:17:50;;;;;;;7.82;2.88;;;0.50;1.00;;;;;;5020992;28;20034;-67
2023/12/27 04:20:15;;;;;;;7.60;3.78;;;0.50;1.00;;;;;;5036189;28;20036;-67
2023/12/27 04:22:41;;;;;;;11.05;5.18;;;0.50;1.00;;;;;;5034988;28;20041;-67
2023/12/27 04:25:08;;;;;;;10.40;3.67;;;0.50;1.00;;;;;;5035899;28;20048;-68
2023/12/27 04:27:34;;;;;;;9.75;3.63;;;0.50;1.00;;;;;;5036927;28;20128;-67
2023/12/27 04:29:59;;;;;;;7.13;3.72;;;0.50;1.00;;;;;;5035881;28;20190;-67
2023/12/27 04:32:25;;;;;;;6.47;3.22;;;0.50;1.00;;;;;;5036710;28;20134;-68
2023/12/27 04:34:51;;;;;;;9.05;3.42;;;0.50;1.00;;;;;;5041445;28;20044;-67
2023/12/27 04:37:16;;;;;;;6.90;3.40;;;0.60;1.00;;;;;;5011716;28;20041;-67
2023/12/27 04:39:42;;;;;;;7.97;3.20;;;0.50;1.00;;;;;;5033517;28;20057;-67
2023/12/27 04:42:08;;;;;;;7.25;3.47;;;0.50;1.00;;;;;;5034649;28;20041;-67
2023/12/27 04:44:33;;;;;;;8.23;3.30;;;0.50;1.00;;;;;;5058741;28;20056;-67
2023/12/27 04:46:59;;;;;;;9.30;3.80;;;0.50;1.00;;;;;;5014520;28;20389;-67
2023/12/27 04:49:25;;;;;;;9.60;3.80;;;0.50;1.00;;;;;;5030180;28;20056;-67
2023/12/27 04:51:51;;;;;;;11.30;3.65;;;0.40;1.00;;;;;;5015591;28;20488;-67
2023/12/27 04:54:16;;;;;;;9.45;3.97;;;0.50;1.00;;;;;;5025978;28;20037;-67
2023/12/27 04:56:42;;;;;;;9.57;3.72;;;0.50;1.00;;;;;;5034533;28;20040;-67
2023/12/27 04:59:08;;;;;;;8.30;3.72;;;0.50;1.00;;;;;;5035881;28;20029;-67
2023/12/27 05:01:33;;;;;;;8.20;4.13;;;0.50;1.00;;;;;;5013291;28;20068;-67
2023/12/27 05:03:59;;;;;;;10.10;3.45;;;0.50;1.00;;;;;;5036000;28;20064;-67
2023/12/27 05:06:24;;;;;;;12.15;3.80;;;0.40;1.00;;;;;;5034855;28;20041;-67
2023/12/27 05:08:50;;;;;;;10.88;3.88;;;0.50;1.00;;;;;;5037848;28;20361;-67
2023/12/27 05:11:21;;;;;;;8.48;3.65;;;0.50;1.00;;;;;;5021598;28;20116;-67
2023/12/27 05:13:47;;;;;;;7.75;3.53;;;0.50;1.00;;;;;;5031396;28;20041;-67
2023/12/27 05:16:14;;;;;;;10.82;5.07;;;0.50;1.00;;;;;;5029275;28;20033;-67
2023/12/27 05:18:41;;;;;;;9.10;4.22;;;0.50;1.00;;;;;;5031154;28;20037;-67
2023/12/27 05:21:08;;;;;;;8.43;4.10;;;0.50;1.00;;;;;;5028285;28;20057;-67
2023/12/27 05:23:34;;;;;;;10.73;5.28;;;0.50;1.00;;;;;;5023391;28;20045;-67
2023/12/27 05:25:59;;;;;;;9.93;4.38;;;0.50;1.00;;;;;;5034230;28;20040;-67
2023/12/27 05:28:26;;;;;;;9.23;4.93;;;0.50;1.00;;;;;;5018582;28;20042;-67
2023/12/27 05:30:52;;;;;;;9.82;4.50;;;0.50;1.00;;;;;;5037635;28;20109;-67
2023/12/27 05:33:17;;;;;;;10.57;4.43;;;0.60;1.00;;;;;;5029309;28;20166;-67
2023/12/27 05:35:43;;;;;;;10.55;4.88;;;0.60;1.00;;;;;;5032284;28;20033;-67
2023/12/27 05:38:08;;;;;;;9.65;4.32;;;0.70;1.00;;;;;;5025752;28;20038;-67
2023/12/27 05:40:34;;;;;;;14.77;4.75;;;0.80;1.70;;;;;;5017403;28;20040;-67
2023/12/27 05:43:00;;;;;;;11.40;4.82;;;0.90;23.60;;;;;;5034684;28;20063;-67
2023/12/27 05:45:25;;;;;;;9.38;5.80;;;0.90;30.00;;;;;;5010943;28;20057;-68
2023/12/27 05:47:52;;;;;;;9.15;5.43;;;0.90;36.20;;;;;;5032439;28;20159;-68
2023/12/27 05:50:17;;;;;;;12.60;4.70;;;1.00;40.80;;;;;;5037077;28;20069;-67
2023/12/27 05:52:43;;;;;;;11.18;5.25;;;1.10;51.20;;;;;;5029029;28;20135;-67
2023/12/27 05:55:09;;;;;;;11.25;5.30;;;1.10;53.50;;;;;;5030788;28;20033;-67
2023/12/27 05:57:35;;;;;;;9.43;5.00;;;1.10;52.60;;;;;;5034703;28;20045;-67
2023/12/27 06:00:00;;;;;;;11.75;5.35;;;1.10;53.30;;;;;;5035148;28;20374;-67
2023/12/27 06:02:26;;;;;;;10.05;5.30;;;1.10;54.70;;;;;;5014214;28;20041;-67
2023/12/27 06:04:52;;;;;;;11.50;5.57;;;1.20;52.20;;;;;;5030210;28;20531;-67
2023/12/27 06:07:17;;;;;;;12.15;5.95;;;1.20;69.80;;;;;;5018277;28;20072;-67
2023/12/27 06:09:43;;;;;;;12.38;6.53;;;1.30;75.90;;;;;;5035419;28;20124;-66
2023/12/27 06:12:08;;;;;;;14.25;6.80;;;1.30;79.60;;;;;;5021178;28;20033;-67
2023/12/27 06:14:35;;;;;;;12.20;6.60;;;1.40;91.00;;;;;;5025431;28;20522;-67
2023/12/27 06:17:01;;;;;;;10.98;6.40;;;1.40;95.70;;;;;;5030285;28;20033;-69
2023/12/27 06:19:28;;;;;;;14.50;6.97;;;1.50;97.50;;;;;;5027214;28;20041;-67
2023/12/27 06:21:53;;;;;;;14.90;7.35;;;1.50;99.90;;;;;;5015872;28;20083;-67
2023/12/27 06:24:20;;;;;;;12.63;7.13;;;1.50;99.90;;;;;;5015508;28;20049;-67
2023/12/27 06:26:45;;;;;;;12.85;7.22;;;1.60;99.90;;;;;;5018503;28;20044;-67
2023/12/27 06:29:11;;;;;;;21.10;8.63;;;1.60;99.90;;;;;;5015081;28;20037;-68
2023/12/27 06:31:36;;;;;;;16.75;7.20;;;1.70;99.90;;;;;;5018549;28;20060;-67
2023/12/27 06:34:02;;;;;;;18.17;7.93;;;1.70;99.90;;;;;;5038096;28;20051;-67
2023/12/27 06:36:28;;;;;;;13.48;7.07;;;1.70;99.90;;;;;;5016102;28;20048;-67
2023/12/27 06:38:54;;;;;;;16.65;7.50;;;1.70;99.90;;;;;;5030853;28;20473;-67
2023/12/27 06:41:19;;;;;;;14.50;7.35;;;1.70;99.90;;;;;;5028208;28;20366;-68
2023/12/27 06:43:45;;;;;;;16.73;7.75;;;1.70;99.90;;;;;;5038819;28;20517;-67
2023/12/27 06:46:10;;;;;;;19.60;8.23;;;1.80;99.90;;;;;;5026972;28;20087;-67
2023/12/27 06:48:36;;;;;;;15.35;8.05;;;1.80;99.90;;;;;;5029236;28;20574;-67
2023/12/27 06:51:04;;;;;;;14.68;7.63;;;1.80;99.90;;;;;;5029837;28;20037;-67
2023/12/27 06:53:29;;;;;;;17.33;8.45;;;1.80;99.90;;;;;;5031375;28;20068;-67
2023/12/27 06:55:55;;;;;;;16.25;7.65;;;1.80;99.90;;;;;;5034555;28;20776;-68
2023/12/27 06:58:21;;;;;;;14.73;8.65;;;1.90;99.90;;;;;;5033446;28;20478;-68
2023/12/27 07:00:47;;;;;;;17.00;8.68;;;1.90;99.90;;;;;;5013292;28;20045;-67
2023/12/27 07:03:13;;;;;;;12.70;7.47;;;1.80;96.50;;;;;;5030625;28;20065;-68
2023/12/27 07:05:39;;;;;;;12.40;7.22;;;1.80;91.90;;;;;;5034311;28;20053;-67
2023/12/27 07:08:05;;;;;;;16.10;7.47;;;1.80;80.70;;;;;;5040260;28;20063;-67
2023/12/27 07:10:31;;;;;;;18.88;8.95;;;1.80;79.50;;;;;;5042983;28;20124;-68
2023/12/27 07:12:57;;;;;;;20.05;8.38;;;1.80;77.20;;;;;;5031964;28;20430;-68
2023/12/27 07:15:23;;;;;;;15.43;8.30;;;1.80;76.30;;;;;;5034849;28;20132;-68
2023/12/27 07:17:49;;;;;;;14.68;7.90;;;1.80;82.90;;;;;;5031524;28;20033;-68
2023/12/27 07:20:15;;;;;;;19.23;9.25;;;1.80;84.10;;;;;;5034857;28;20037;-69
2023/12/27 07:22:40;;;;;;;14.43;8.20;;;1.80;89.60;;;;;;5024713;28;20041;-68
2023/12/27 07:25:06;;;;;;;15.35;8.27;;;1.90;91.50;;;;;;5020803;28;20091;-67
2023/12/27 07:27:32;;;;;;;18.00;8.23;;;1.90;95.10;;;;;;5034952;28;20374;-68
2023/12/27 07:29:58;;;;;;;18.58;9.15;;;1.90;95.00;;;;;;5036470;28;20057;-67
2023/12/27 07:32:23;;;;;;;18.25;10.00;;;2.00;99.90;;;;;;5039753;28;20056;-67
2023/12/27 07:34:49;;;;;;;22.00;10.68;;;2.00;99.90;;;;;;5017205;28;20811;-68
2023/12/27 07:37:14;;;;;;;18.90;10.38;;;2.00;99.90;;;;;;5034149;28;20048;-67
2023/12/27 07:39:41;;;;;;;19.75;10.73;;;2.10;99.90;;;;;;5036788;28;20384;-67
2023/12/27 07:42:07;;;;;;;18.10;10.32;;;2.10;99.90;;;;;;5032773;28;20041;-67
2023/12/27 07:44:32;;;;;;;27.38;11.15;;;2.10;99.90;;;;;;5041549;28;20082;-68
2023/12/27 07:46:58;;;;;;;18.08;10.77;;;2.20;99.90;;;;;;5037109;28;20037;-68
2023/12/27 07:49:24;;;;;;;20.00;10.30;;;2.20;99.90;;;;;;5031857;28;20029;-68
2023/12/27 07:51:50;;;;;;;22.90;11.63;;;2.30;99.90;;;;;;5031067;28;20421;-67
2023/12/27 07:54:15;;;;;;;18.95;10.18;;;2.30;99.90;;;;;;5044770;28;20037;-67
2023/12/27 07:56:41;;;;;;;18.38;10.65;;;2.40;99.90;;;;;;5040242;28;20114;-67
2023/12/27 07:59:07;;;;;;;24.48;11.07;;;2.50;99.90;;;;;;5038978;28;20033;-67
2023/12/27 08:01:33;;;;;;;19.95;9.88;;;2.50;99.90;;;;;;5030313;28;20517;-67
2023/12/27 08:03:59;;;;;;;22.73;10.23;;;2.60;99.90;;;;;;5015834;28;20120;-67
2023/12/27 08:06:26;;;;;;;22.75;10.98;;;2.60;99.90;;;;;;5033175;28;20194;-67
2023/12/27 08:08:52;;;;;;;19.58;10.65;;;2.60;99.90;;;;;;5029391;28;20135;-67
2023/12/27 08:11:20;;;;;;;20.83;10.52;;;2.60;99.90;;;;;;5026479;28;20033;-68
2023/12/27 08:13:46;;;;;;;20.60;9.90;;;2.70;99.90;;;;;;5034738;28;20083;-67
2023/12/27 08:16:11;;;;;;;21.75;10.02;;;2.70;99.90;;;;;;5014941;28;20393;-67
2023/12/27 08:18:37;;;;;;;16.92;9.15;;;2.80;99.90;;;;;;5036340;28;20477;-67
2023/12/27 08:21:04;;;;;;;17.83;9.65;;;2.80;99.90;;;;;;5034728;28;20419;-67
2023/12/27 08:23:30;;;;;;;19.13;8.75;;;2.90;99.90;;;;;;5033374;28;20104;-67
2023/12/27 08:25:57;;;;;;;24.58;9.10;;;2.90;99.90;;;;;;5039002;28;20429;-68
2023/12/27 08:28:23;;;;;;;17.80;7.85;;;2.90;99.90;;;;;;5049879;28;20037;-68
2023/12/27 08:30:49;;;;;;;16.40;8.27;;;3.00;99.90;;;;;;5042001;28;20134;-66
2023/12/27 08:33:15;;;;;;;22.45;8.98;;;3.10;99.90;;;;;;5032721;28;20046;-67
2023/12/27 08:35:41;;;;;;;21.13;8.32;;;3.20;99.90;;;;;;5038933;28;20591;-67
2023/12/27 08:38:08;;;;;;;22.75;8.43;;;3.20;99.90;;;;;;5034433;28;20054;-67
2023/12/27 08:40:34;;;;;;;16.63;7.35;;;3.20;99.90;;;;;;5040054;28;20045;-67
2023/12/27 08:43:00;;;;;;;25.13;7.15;;;3.30;99.90;;;;;;5017627;28;20045;-67
2023/12/27 08:45:26;;;;;;;18.23;7.13;;;3.40;99.90;;;;;;5031962;28;20080;-67
2023/12/27 08:47:51;;;;;;;14.00;6.63;;;3.40;99.90;;;;;;5036796;28;20480;-67
2023/12/27 08:50:17;;;;;;;14.23;6.72;;;3.40;99.90;;;;;;5040169;28;20132;-68
2023/12/27 08:52:43;;;;;;;17.65;7.28;;;3.40;97.20;;;;;;5036190;28;20132;-67
2023/12/27 08:55:10;;;;;;;15.73;6.20;;;3.50;96.00;;;;;;5038442;28;20060;-67
2023/12/27 08:57:39;;;;;;;14.70;6.40;;;3.50;95.00;;;;;;5017514;28;20037;-68
2023/12/27 09:00:10;;;;;;;20.98;7.43;;;3.50;91.50;;;;;;5040282;28;20044;-67
2023/12/27 09:02:37;;;;;;;19.88;6.28;;;3.50;90.30;;;;;;5030963;28;20052;-67
2023/12/27 09:05:04;;;;;;;16.60;5.95;;;3.60;93.70;;;;;;5018302;28;20036;-67
2023/12/27 09:07:31;;;;;;;18.33;5.78;;;3.60;86.80;;;;;;5036010;28;20120;-67
2023/12/27 09:09:57;;;;;;;18.02;6.47;;;3.60;85.20;;;;;;5035521;28;20521;-67
2023/12/27 09:12:22;;;;;;;15.38;5.85;;;3.70;79.80;;;;;;5043385;28;20052;-68
2023/12/27 09:14:48;;;;;;;13.93;5.50;;;3.70;82.40;;;;;;5021456;28;20325;-68
2023/12/27 09:17:15;;;;;;;16.67;5.70;;;3.80;70.10;;;;;;5037900;28;20041;-68
2023/12/27 09:19:42;;;;;;;14.07;5.68;;;3.80;63.70;;;;;;5040097;28;20037;-67
2023/12/27 09:22:07;;;;;;;17.85;5.82;;;3.80;54.60;;;;;;5029465;28;20148;-67
2023/12/27 09:24:33;;;;;;;12.02;5.32;;;3.80;56.40;;;;;;5035138;28;20577;-67
2023/12/27 09:26:59;;;;;;;16.40;6.57;;;3.90;40.30;;;;;;5027654;28;20048;-67
2023/12/27 09:29:25;;;;;;;16.42;5.57;;;3.90;24.90;;;;;;5042346;28;20465;-67
2023/12/27 09:31:50;;;;;;;19.17;5.63;;;4.00;15.50;;;;;;5030478;28;20045;-67
2023/12/27 09:34:17;;;;;;;14.00;5.60;;;4.00;13.70;;;;;;5031786;28;20065;-70
2023/12/27 09:36:43;;;;;;;14.63;5.82;;;4.00;8.10;;;;;;5028220;28;20072;-67
2023/12/27 09:39:11;;;;;;;16.42;6.53;;;4.10;5.50;;;;;;5030861;28;20068;-68
2023/12/27 09:41:37;;;;;;;12.70;6.07;;;4.10;1.00;;;;;;5030831;28;20055;-68
2023/12/27 09:44:06;;;;;;;15.02;5.78;;;4.10;1.00;;;;;;5043247;28;20056;-68
2023/12/27 09:46:33;;;;;;;20.88;6.07;;;4.20;4.00;;;;;;5035342;28;20136;-68
2023/12/27 09:48:59;;;;;;;16.80;6.55;;;4.20;1.00;;;;;;5040206;28;20041;-68
2023/12/27 09:51:25;;;;;;;17.95;6.50;;;4.20;1.00;;;;;;5021247;28;20042;-68
2023/12/27 09:53:51;;;;;;;14.90;5.88;;;4.20;1.00;;;;;;5039858;28;20064;-68
2023/12/27 09:56:18;;;;;;;17.92;6.80;;;4.30;1.00;;;;;;5034559;28;20060;-68
2023/12/27 09:58:45;;;;;;;19.02;6.82;;;4.30;1.00;;;;;;5017701;28;20052;-68
2023/12/27 10:01:12;;;;;;;17.77;7.32;;;4.30;1.00;;;;;;5023347;28;20122;-67
2023/12/27 10:03:43;;;;;;;17.20;6.95;;;4.40;1.00;;;;;;5047129;28;20045;-67
2023/12/27 10:06:16;;;;;;;19.65;6.97;;;4.40;1.00;;;;;;5029475;28;20041;-67
2023/12/27 10:08:41;;;;;;;18.25;7.10;;;4.50;1.00;;;;;;5035417;28;20095;-67
2023/12/27 10:11:09;;;;;;;25.30;7.45;;;4.50;1.00;;;;;;5032496;28;20473;-68
2023/12/27 10:13:40;;;;;;;14.07;6.68;;;4.60;1.00;;;;;;5047408;28;20037;-67
2023/12/27 10:16:06;;;;;;;18.27;7.25;;;4.60;1.00;;;;;;5040305;28;20041;-69
2023/12/27 10:18:31;;;;;;;17.02;6.50;;;4.60;1.00;;;;;;5050754;28;20485;-68
2023/12/27 10:20:58;;;;;;;16.95;7.22;;;4.70;1.00;;;;;;5041007;28;20418;-67
2023/12/27 10:23:24;;;;;;;20.08;7.50;;;4.70;1.00;;;;;;5038654;28;20049;-67
2023/12/27 10:25:51;;;;;;;19.73;7.70;;;4.80;1.00;;;;;;5042052;28;20449;-67
2023/12/27 10:28:22;;;;;;;17.00;7.32;;;4.80;1.00;;;;;;5050076;28;20041;-67
2023/12/27 10:30:47;;;;;;;18.40;7.00;;;4.80;1.00;;;;;;5040780;28;20081;-67
2023/12/27 10:33:13;;;;;;;18.38;7.68;;;4.90;1.00;;;;;;5052230;28;20092;-66
2023/12/27 10:35:39;;;;;;;17.70;7.07;;;4.90;99.90;;;;;;5043051;28;20480;-67
2023/12/27 10:38:05;;;;;;;20.20;7.82;;;5.00;99.90;;;;;;5043992;28;20223;-67
2023/12/27 10:40:35;;;;;;;18.98;7.45;;;5.00;99.90;;;;;;5049142;28;20234;-67
2023/12/27 10:43:02;;;;;;;;;;;5.00;99.90;;;;;;5047265;28;20050;-67
2023/12/27 10:45:28;;;;;;;19.33;6.68;;;5.00;99.90;;;;;;5039764;28;21117;-67
2023/12/27 10:47:59;;;;;;;17.75;6.85;;;5.00;99.90;;;;;;5040594;28;20096;-67
2023/12/27 10:50:27;;;;;;;19.27;7.43;;;5.00;99.90;;;;;;5037977;28;20045;-67
2023/12/27 10:53:05;;;;;;;16.05;6.97;;;5.10;99.90;;;;;;5032464;28;20124;-68
2023/12/27 10:55:32;;;;;;;18.85;7.43;;;5.10;99.90;;;;;;5039688;28;20049;-67
2023/12/27 10:58:00;;;;;;;13.32;6.50;;;5.10;99.90;;;;;;5043338;28;20415;-66
2023/12/27 11:00:26;;;;;;;19.05;6.30;;;5.00;99.90;;;;;;5032196;28;20025;-67
2023/12/27 11:02:53;;;;;;;13.55;6.38;;;5.00;99.90;;;;;;5015149;28;20186;-67
2023/12/27 11:05:20;;;;;;;16.75;7.72;;;5.00;99.90;;;;;;5044476;28;20042;-66
2023/12/27 11:07:46;;;;;;;20.33;6.75;;;5.00;99.90;;;;;;5034713;28;20128;-67
2023/12/27 11:10:16;;;;;;;19.38;7.20;;;4.90;99.90;;;;;;5032903;28;20141;-68
2023/12/27 11:12:47;;;;;;;18.42;6.85;;;4.90;99.90;;;;;;5038572;28;20065;-66
2023/12/27 11:15:16;;;;;;;;;;;4.90;99.90;;;;;;5035036;28;20468;-66
2023/12/27 11:17:42;;;;;;;17.55;6.47;;;4.90;1.00;;;;;;5033550;28;19924;-67
2023/12/27 11:20:12;;;;;;;19.48;6.70;;;4.90;1.00;;;;;;5022889;28;20033;-66
2023/12/27 11:22:43;;;;;;;21.63;6.85;;;4.90;1.00;;;;;;5039558;28;20436;-67
2023/12/27 11:25:09;;;;;;;13.25;6.35;;;4.80;1.00;;;;;;5036439;28;20451;-66
2023/12/27 11:27:36;;;;;;;22.10;8.25;;;4.80;1.00;;;;;;5045661;28;20041;-69
2023/12/27 11:30:02;;;;;;;22.27;7.68;;;4.90;1.00;;;;;;5033498;28;20458;-67
2023/12/27 11:32:30;;;;;;;26.80;8.68;;;4.90;1.00;;;;;;5036915;28;20148;-68
2023/12/27 11:34:56;;;;;;;22.40;7.93;;;4.90;8.50;;;;;;5034788;28;20033;-67
2023/12/27 11:37:23;;;;;;;25.17;8.13;;;4.90;17.60;;;;;;5021838;28;20057;-67
2023/12/27 11:39:51;;;;;;;20.48;8.98;;;4.90;38.80;;;;;;5032373;28;20041;-67
2023/12/27 11:42:17;;;;;;;32.03;8.80;;;4.80;33.20;;;;;;5036315;28;20083;-66
2023/12/27 11:44:48;;;;;;;25.80;9.13;;;4.90;61.60;;;;;;5033870;28;20033;-68
2023/12/27 11:47:17;;;;;;;27.33;9.63;;;4.80;86.20;;;;;;5019021;28;20071;-67
2023/12/27 11:50:15;;;;;;;32.22;10.25;;;4.80;99.90;;;;;;5043740;28;20030;-69
2023/12/27 11:52:49;;;;;;;25.45;9.52;;;4.80;99.90;;;;;;5041063;28;20174;-67
2023/12/27 11:55:16;;;;;;;25.73;9.43;;;4.90;99.90;;;;;;5042908;28;20052;-69
2023/12/27 11:57:45;;;;;;;23.90;8.35;;;4.90;99.90;;;;;;5022443;28;20041;-74
2023/12/27 12:00:24;;;;;;;24.73;9.15;;;4.80;99.90;;;;;;5028800;28;20030;-69
2023/12/27 12:02:57;;;;;;;23.90;9.27;;;4.90;99.90;;;;;;5001910;28;20045;-70
2023/12/27 12:05:51;;;;;;;29.23;9.82;;;4.90;99.90;;;;;;5029270;28;20037;-71
2023/12/27 12:08:26;;;;;;;28.92;10.15;;;4.90;99.90;;;;;;5031594;28;20053;-71
2023/12/27 12:11:05;;;;;;;26.83;10.18;;;4.90;99.90;;;;;;5030598;28;20040;-73
2023/12/27 12:13:31;;;;;;;27.73;10.18;;;5.00;99.90;;;;;;5037834;28;20473;-71
2023/12/27 12:15:57;;;;;;;32.72;10.32;;;4.90;99.90;;;;;;5034425;28;20516;-74
2023/12/27 12:18:24;;;;;;;27.63;9.38;;;4.90;99.90;;;;;;5036812;28;20033;-69
2023/12/27 12:20:50;;;;;;;29.45;10.85;;;5.00;99.90;;;;;;5033301;28;20087;-73
2023/12/27 12:23:16;;;;;;;26.90;10.98;;;5.00;99.90;;;;;;5037535;28;20041;-77
2023/12/27 12:25:42;;;;;;;32.22;10.77;;;5.00;99.90;;;;;;5019220;28;20378;-72
2023/12/27 12:28:08;;;;;;;34.55;12.55;;;4.90;99.90;;;;;;5036112;28;20032;-71
2023/12/27 12:30:35;;;;;;;29.02;11.77;;;5.00;99.90;;;;;;5029410;28;20053;-77
2023/12/27 12:33:01;;;;;;;28.02;11.57;;;5.10;99.90;;;;;;5035867;28;20059;-74
2023/12/27 12:35:27;;;;;;;28.40;11.32;;;5.10;99.90;;;;;;5046027;28;20045;-74
2023/12/27 12:37:53;;;;;;;30.38;12.50;;;5.10;99.90;;;;;;5041144;28;20415;-74
2023/12/27 12:40:18;;;;;;;36.42;13.18;;;5.20;99.90;;;;;;5033396;28;20049;-78
2023/12/27 12:42:44;;;;;;;30.38;13.05;;;5.10;99.90;;;;;;5040862;28;20106;-74
2023/12/27 12:45:10;;;;;;;35.35;13.35;;;5.10;1.00;;;;;;5034976;28;20044;-71
2023/12/27 12:47:37;;;;;;;27.30;12.55;;;5.10;1.00;;;;;;5017417;28;20052;-72
2023/12/27 12:50:05;;;;;;;28.83;13.23;;;5.20;1.00;;;;;;5038621;28;20377;-77